Terminal Aerodrome Forecast
Issued by NWS Cleveland, OH

Home | Current Version | Previous Version | Graphics & Text | Print | Product List | Glossary On
Versions: 1 2 3 4 5 6 7 8 9 10 11 12 13 14 15 16 17 18 19 20 21 22 23 24 25 26 27 28 29 30
000
FTUS41 KCLE 290800 AAA
TAFCLE
TAF AMD
KCLE 290854Z 2909/3012 VRB03KT 6SM BR BKN250
     FM291000 VRB03KT 4SM BR SCT003 BKN250
      TEMPO 2910/2913 2SM BR BKN003
     FM291400 30005KT P6SM SKC
     FM300000 VRB05KT P6SM SCT100 BKN250
     FM300900 26005KT P6SM VCSH BKN050 OVC100=

USA.gov is the U.S. government's official web portal to all federal, state and local government web resources and services.